HST,Max TemperatureF,Mean TemperatureF,Min TemperatureF,Max Dew PointF,MeanDew PointF,Min DewpointF,Max Humidity, Mean Humidity, Min Humidity, Max Sea Level PressureIn, Mean Sea Level PressureIn, Min Sea Level PressureIn, Max VisibilityMiles, Mean VisibilityMiles, Min VisibilityMiles, Max Wind SpeedMPH, Mean Wind SpeedMPH, Max Gust SpeedMPH,PrecipitationIn, CloudCover, Events, WindDirDegrees
2013-4-1,78,74,70,57,54,51,59,51,42,30.02,29.98,29.93,10,10,10,13,9,17,0.00,1,,311
2013-4-2,81,74,66,58,56,54,68,53,39,30.06,30.01,29.96,10,10,10,15,8,,0.00,2,,6
2013-4-3,82,74,66,59,56,53,61,53,41,30.08,30.02,29.98,10,10,10,10,5,,0.00,3,,319
2013-4-4,81,74,68,63,59,53,62,56,49,30.08,30.03,29.99,10,10,10,10,5,,0.00,0,,188
2013-4-5,82,76,70,65,61,56,64,59,52,30.11,30.05,30.00,10,10,10,12,6,,0.00,1,,171
2013-4-6,82,77,72,67,64,60,74,64,56,30.14,30.09,30.03,10,10,10,9,6,,0.00,0,,160
2013-4-7,82,76,69,70,67,64,88,68,61,30.15,30.11,30.05,10,10,10,14,6,,0.00,1,,215
2013-4-8,82,78,73,68,65,61,73,67,58,30.08,30.04,29.97,10,10,10,58,12,,0.00,3,,232
2013-4-9,82,76,71,68,67,66,83,69,58,30.07,30.01,29.95,10,10,10,13,8,,0.00,1,,208
2013-4-10,82,76,70,68,66,63,81,69,58,30.05,30.01,29.94,10,10,10,13,9,,0.00,4,,203
2013-4-11,82,78,73,68,65,63,76,65,54,30.02,29.98,29.93,10,10,10,12,6,,0.00,5,,166
2013-4-12,82,78,73,68,66,64,76,67,58,29.99,29.94,29.90,10,10,10,15,7,,0.00,4,,295
2013-4-13,84,80,75,70,67,65,83,70,56,29.97,29.93,29.87,10,10,10,17,7,,0.00,4,,296
2013-4-14,82,78,73,68,66,63,78,68,56,29.99,29.93,29.88,10,10,10,15,7,,0.00,5,,176
2013-4-15,84,78,72,68,66,63,79,67,51,30.04,29.99,29.93,10,10,10,13,7,,0.00,2,,353
2013-4-16,82,78,73,70,68,65,83,72,60,30.09,30.05,29.99,10,10,10,14,7,,0.00,5,,241
2013-4-17,82,78,73,69,66,59,78,68,54,30.11,30.06,30.02,10,10,10,14,5,,0.00,4,,157
2013-4-18,82,77,72,67,63,59,71,61,54,30.11,30.07,30.04,10,10,10,10,6,,0.00,3,,177
2013-4-19,84,78,73,68,66,63,78,65,58,30.08,30.04,30.01,10,10,10,13,6,,0.00,3,,187
2013-4-20,82,78,73,67,65,62,71,64,58,30.08,30.05,30.01,10,10,10,12,6,,0.00,2,,247
2013-4-21,82,78,73,68,66,61,78,69,56,30.05,30.02,29.97,10,10,10,14,7,,0.00,4,,268
2013-4-22,84,78,72,68,66,62,74,65,53,30.05,30.01,29.97,10,10,10,15,5,,0.00,3,,132
2013-4-23,84,78,71,68,66,61,79,65,55,30.07,30.03,29.99,10,10,10,15,6,,0.00,1,,200
2013-4-24,84,78,73,70,68,66,83,70,56,30.09,30.03,29.98,10,10,10,15,6,,0.01,3,Rain,279
2013-4-25,82,77,72,68,63,56,78,61,43,30.05,30.01,29.96,10,10,10,17,8,21,0.00,3,,36
2013-4-26,82,78,73,67,65,62,73,65,54,30.02,29.98,29.96,10,10,10,12,5,,0.00,3,,153
2013-4-27,84,78,72,67,65,62,71,63,55,30.05,30.00,29.94,10,10,10,12,6,,0.00,1,,192
2013-4-28,84,78,72,68,64,60,69,62,50,30.03,29.99,29.94,10,10,10,14,8,,0.00,1,,2
2013-4-29,84,78,73,70,66,61,87,65,54,29.99,29.96,29.91,10,10,10,13,7,,0.15,3,Rain,300
2013-4-30,82,76,71,70,68,65,94,75,60,30.02,29.98,29.94,10,10,6,15,9,,0.19,3,Rain,350